sensor_id;sensor_type;location;lat;lon;timestamp;P1;durP1;ratioP1;P2;durP2;ratioP2
46415;SDS011;32620;51.704;7.822;2023-02-28T00:00:23;6.47;;;2.17;;
46415;SDS011;32620;51.704;7.822;2023-02-28T00:02:49;5.30;;;2.47;;
46415;SDS011;32620;51.704;7.822;2023-02-28T00:05:18;4.63;;;2.85;;
46415;SDS011;32620;51.704;7.822;2023-02-28T00:07:45;3.78;;;2.15;;
46415;SDS011;32620;51.704;7.822;2023-02-28T00:10:12;4.00;;;1.98;;
46415;SDS011;32620;51.704;7.822;2023-02-28T00:12:40;4.15;;;2.30;;
46415;SDS011;32620;51.704;7.822;2023-02-28T00:15:06;4.38;;;2.40;;
46415;SDS011;32620;51.704;7.822;2023-02-28T00:17:33;2.80;;;2.25;;
46415;SDS011;32620;51.704;7.822;2023-02-28T00:19:59;7.25;;;2.47;;
46415;SDS011;32620;51.704;7.822;2023-02-28T00:22:36;4.32;;;2.47;;
46415;SDS011;32620;51.704;7.822;2023-02-28T00:25:03;2.22;;;1.85;;
46415;SDS011;32620;51.704;7.822;2023-02-28T00:27:30;4.03;;;2.33;;
46415;SDS011;32620;51.704;7.822;2023-02-28T00:29:55;4.30;;;2.30;;
46415;SDS011;32620;51.704;7.822;2023-02-28T00:32:21;3.42;;;2.38;;
46415;SDS011;32620;51.704;7.822;2023-02-28T00:34:47;3.15;;;2.10;;
46415;SDS011;32620;51.704;7.822;2023-02-28T00:37:12;4.88;;;2.17;;
46415;SDS011;32620;51.704;7.822;2023-02-28T00:39:38;4.40;;;2.42;;
46415;SDS011;32620;51.704;7.822;2023-02-28T00:42:05;4.13;;;2.70;;
46415;SDS011;32620;51.704;7.822;2023-02-28T00:44:31;4.03;;;2.20;;
46415;SDS011;32620;51.704;7.822;2023-02-28T00:46:57;4.82;;;2.53;;
46415;SDS011;32620;51.704;7.822;2023-02-28T00:49:24;6.78;;;2.92;;
46415;SDS011;32620;51.704;7.822;2023-02-28T00:51:51;3.65;;;2.45;;
46415;SDS011;32620;51.704;7.822;2023-02-28T00:54:17;3.22;;;2.40;;
46415;SDS011;32620;51.704;7.822;2023-02-28T00:56:43;5.13;;;2.40;;
46415;SDS011;32620;51.704;7.822;2023-02-28T00:59:10;4.30;;;2.80;;
46415;SDS011;32620;51.704;7.822;2023-02-28T01:01:36;6.30;;;3.38;;
46415;SDS011;32620;51.704;7.822;2023-02-28T01:04:02;6.50;;;3.33;;
46415;SDS011;32620;51.704;7.822;2023-02-28T01:06:28;5.60;;;2.83;;
46415;SDS011;32620;51.704;7.822;2023-02-28T01:08:53;4.97;;;2.63;;
46415;SDS011;32620;51.704;7.822;2023-02-28T01:11:19;7.15;;;2.63;;
46415;SDS011;32620;51.704;7.822;2023-02-28T01:13:45;5.63;;;2.30;;
46415;SDS011;32620;51.704;7.822;2023-02-28T01:16:11;5.82;;;2.97;;
46415;SDS011;32620;51.704;7.822;2023-02-28T01:18:38;4.80;;;2.88;;
46415;SDS011;32620;51.704;7.822;2023-02-28T01:21:04;7.53;;;3.35;;
46415;SDS011;32620;51.704;7.822;2023-02-28T01:23:31;9.90;;;3.33;;
46415;SDS011;32620;51.704;7.822;2023-02-28T01:25:56;6.75;;;3.60;;
46415;SDS011;32620;51.704;7.822;2023-02-28T01:28:22;6.35;;;3.20;;
46415;SDS011;32620;51.704;7.822;2023-02-28T01:30:48;10.18;;;3.50;;
46415;SDS011;32620;51.704;7.822;2023-02-28T01:33:15;7.95;;;3.40;;
46415;SDS011;32620;51.704;7.822;2023-02-28T01:35:40;6.00;;;3.47;;
46415;SDS011;32620;51.704;7.822;2023-02-28T01:38:06;11.38;;;4.03;;
46415;SDS011;32620;51.704;7.822;2023-02-28T01:40:31;7.50;;;3.35;;
46415;SDS011;32620;51.704;7.822;2023-02-28T01:42:57;6.22;;;3.30;;
46415;SDS011;32620;51.704;7.822;2023-02-28T01:45:25;7.63;;;3.17;;
46415;SDS011;32620;51.704;7.822;2023-02-28T01:47:55;6.30;;;3.05;;
46415;SDS011;32620;51.704;7.822;2023-02-28T01:50:26;5.63;;;2.88;;
46415;SDS011;32620;51.704;7.822;2023-02-28T01:52:56;5.18;;;2.83;;
46415;SDS011;32620;51.704;7.822;2023-02-28T01:55:25;5.85;;;3.10;;
46415;SDS011;32620;51.704;7.822;2023-02-28T01:57:54;5.20;;;3.00;;
46415;SDS011;32620;51.704;7.822;2023-02-28T02:00:25;5.07;;;3.08;;
46415;SDS011;32620;51.704;7.822;2023-02-28T02:02:54;6.88;;;3.05;;
46415;SDS011;32620;51.704;7.822;2023-02-28T02:05:23;4.00;;;3.05;;
46415;SDS011;32620;51.704;7.822;2023-02-28T02:07:52;5.43;;;3.00;;
46415;SDS011;32620;51.704;7.822;2023-02-28T02:10:23;6.57;;;3.65;;
46415;SDS011;32620;51.704;7.822;2023-02-28T02:15:40;6.65;;;3.60;;
46415;SDS011;32620;51.704;7.822;2023-02-28T02:24:28;6.93;;;3.40;;
46415;SDS011;32620;51.704;7.822;2023-02-28T02:27:19;6.43;;;2.92;;
46415;SDS011;32620;51.704;7.822;2023-02-28T02:30:06;5.22;;;3.08;;
46415;SDS011;32620;51.704;7.822;2023-02-28T02:38:31;6.10;;;2.92;;
46415;SDS011;32620;51.704;7.822;2023-02-28T02:41:04;5.20;;;3.20;;
46415;SDS011;32620;51.704;7.822;2023-02-28T02:43:53;6.65;;;4.15;;
46415;SDS011;32620;51.704;7.822;2023-02-28T02:46:29;6.35;;;3.05;;
46415;SDS011;32620;51.704;7.822;2023-02-28T02:48:59;5.45;;;3.00;;
46415;SDS011;32620;51.704;7.822;2023-02-28T02:51:28;3.35;;;2.70;;
46415;SDS011;32620;51.704;7.822;2023-02-28T02:54:02;6.68;;;3.10;;
46415;SDS011;32620;51.704;7.822;2023-02-28T02:56:33;4.97;;;2.80;;
46415;SDS011;32620;51.704;7.822;2023-02-28T02:59:02;5.18;;;2.90;;
46415;SDS011;32620;51.704;7.822;2023-02-28T03:01:30;5.40;;;3.03;;
46415;SDS011;32620;51.704;7.822;2023-02-28T03:03:57;5.63;;;2.60;;
46415;SDS011;32620;51.704;7.822;2023-02-28T03:06:25;4.38;;;2.50;;
46415;SDS011;32620;51.704;7.822;2023-02-28T03:08:51;7.07;;;3.45;;
46415;SDS011;32620;51.704;7.822;2023-02-28T03:11:17;13.43;;;3.90;;
46415;SDS011;32620;51.704;7.822;2023-02-28T03:13:55;7.13;;;3.00;;
46415;SDS011;32620;51.704;7.822;2023-02-28T03:19:55;5.32;;;3.03;;
46415;SDS011;32620;51.704;7.822;2023-02-28T03:29:22;4.00;;;2.92;;
46415;SDS011;32620;51.704;7.822;2023-02-28T03:31:13;5.15;;;3.65;;
46415;SDS011;32620;51.704;7.822;2023-02-28T03:33:51;5.72;;;3.00;;
46415;SDS011;32620;51.704;7.822;2023-02-28T03:36:26;9.48;;;3.30;;
46415;SDS011;32620;51.704;7.822;2023-02-28T03:38:58;6.35;;;2.75;;
46415;SDS011;32620;51.704;7.822;2023-02-28T03:41:31;6.20;;;3.15;;
46415;SDS011;32620;51.704;7.822;2023-02-28T03:44:05;5.55;;;3.28;;
46415;SDS011;32620;51.704;7.822;2023-02-28T03:46:40;8.20;;;4.25;;
46415;SDS011;32620;51.704;7.822;2023-02-28T03:49:15;6.20;;;3.42;;
46415;SDS011;32620;51.704;7.822;2023-02-28T03:51:45;9.80;;;4.50;;
46415;SDS011;32620;51.704;7.822;2023-02-28T03:54:12;6.03;;;3.55;;
46415;SDS011;32620;51.704;7.822;2023-02-28T03:56:59;7.53;;;3.70;;
46415;SDS011;32620;51.704;7.822;2023-02-28T03:59:33;8.25;;;4.20;;
46415;SDS011;32620;51.704;7.822;2023-02-28T04:02:04;7.15;;;3.58;;
46415;SDS011;32620;51.704;7.822;2023-02-28T04:04:30;6.35;;;3.60;;
46415;SDS011;32620;51.704;7.822;2023-02-28T04:07:04;6.43;;;3.38;;
46415;SDS011;32620;51.704;7.822;2023-02-28T04:09:32;5.93;;;3.15;;
46415;SDS011;32620;51.704;7.822;2023-02-28T04:11:58;5.85;;;3.17;;
46415;SDS011;32620;51.704;7.822;2023-02-28T04:14:24;6.00;;;3.08;;
46415;SDS011;32620;51.704;7.822;2023-02-28T04:16:49;7.05;;;3.25;;
46415;SDS011;32620;51.704;7.822;2023-02-28T04:19:16;5.22;;;3.05;;
46415;SDS011;32620;51.704;7.822;2023-02-28T04:21:43;6.18;;;3.28;;
46415;SDS011;32620;51.704;7.822;2023-02-28T04:24:11;7.53;;;3.85;;
46415;SDS011;32620;51.704;7.822;2023-02-28T04:26:39;8.95;;;3.78;;
46415;SDS011;32620;51.704;7.822;2023-02-28T04:29:08;13.85;;;4.70;;
46415;SDS011;32620;51.704;7.822;2023-02-28T04:31:35;6.80;;;3.88;;
46415;SDS011;32620;51.704;7.822;2023-02-28T04:34:00;8.02;;;4.32;;
46415;SDS011;32620;51.704;7.822;2023-02-28T04:36:26;8.25;;;3.45;;
46415;SDS011;32620;51.704;7.822;2023-02-28T04:38:53;9.75;;;3.78;;
46415;SDS011;32620;51.704;7.822;2023-02-28T04:41:19;7.15;;;4.43;;
46415;SDS011;32620;51.704;7.822;2023-02-28T04:43:45;8.52;;;4.35;;
46415;SDS011;32620;51.704;7.822;2023-02-28T04:46:10;7.68;;;4.47;;
46415;SDS011;32620;51.704;7.822;2023-02-28T04:48:37;10.13;;;3.80;;
46415;SDS011;32620;51.704;7.822;2023-02-28T04:51:05;10.77;;;4.68;;
46415;SDS011;32620;51.704;7.822;2023-02-28T04:53:33;7.93;;;4.35;;
46415;SDS011;32620;51.704;7.822;2023-02-28T04:55:59;7.95;;;4.65;;
46415;SDS011;32620;51.704;7.822;2023-02-28T04:58:25;6.50;;;4.85;;
46415;SDS011;32620;51.704;7.822;2023-02-28T05:00:51;6.32;;;4.35;;
46415;SDS011;32620;51.704;7.822;2023-02-28T05:03:18;10.32;;;4.90;;
46415;SDS011;32620;51.704;7.822;2023-02-28T05:05:43;8.90;;;5.10;;
46415;SDS011;32620;51.704;7.822;2023-02-28T05:08:09;12.38;;;5.07;;
46415;SDS011;32620;51.704;7.822;2023-02-28T05:10:35;8.95;;;4.72;;
46415;SDS011;32620;51.704;7.822;2023-02-28T05:13:01;14.18;;;4.80;;
46415;SDS011;32620;51.704;7.822;2023-02-28T05:15:26;13.05;;;5.57;;
46415;SDS011;32620;51.704;7.822;2023-02-28T05:17:52;7.55;;;4.05;;
46415;SDS011;32620;51.704;7.822;2023-02-28T05:20:17;6.95;;;3.85;;
46415;SDS011;32620;51.704;7.822;2023-02-28T05:22:43;5.13;;;3.38;;
46415;SDS011;32620;51.704;7.822;2023-02-28T05:25:10;7.45;;;3.78;;
46415;SDS011;32620;51.704;7.822;2023-02-28T05:27:40;10.43;;;4.10;;
46415;SDS011;32620;51.704;7.822;2023-02-28T05:30:06;5.85;;;3.70;;
46415;SDS011;32620;51.704;7.822;2023-02-28T05:32:35;7.05;;;3.55;;
46415;SDS011;32620;51.704;7.822;2023-02-28T05:35:07;7.45;;;4.47;;
46415;SDS011;32620;51.704;7.822;2023-02-28T05:37:34;8.48;;;4.20;;
46415;SDS011;32620;51.704;7.822;2023-02-28T05:39:59;8.43;;;4.18;;
46415;SDS011;32620;51.704;7.822;2023-02-28T05:42:25;10.63;;;4.53;;
46415;SDS011;32620;51.704;7.822;2023-02-28T05:44:51;5.65;;;3.55;;
46415;SDS011;32620;51.704;7.822;2023-02-28T05:47:16;5.63;;;4.05;;
46415;SDS011;32620;51.704;7.822;2023-02-28T05:49:42;7.82;;;4.38;;
46415;SDS011;32620;51.704;7.822;2023-02-28T05:52:08;10.23;;;4.30;;
46415;SDS011;32620;51.704;7.822;2023-02-28T05:54:33;8.68;;;4.68;;
46415;SDS011;32620;51.704;7.822;2023-02-28T05:56:59;10.02;;;3.88;;
46415;SDS011;32620;51.704;7.822;2023-02-28T05:59:24;7.65;;;4.38;;
46415;SDS011;32620;51.704;7.822;2023-02-28T06:01:50;5.82;;;4.10;;
46415;SDS011;32620;51.704;7.822;2023-02-28T06:04:18;8.45;;;4.18;;
46415;SDS011;32620;51.704;7.822;2023-02-28T06:06:45;6.70;;;4.35;;
46415;SDS011;32620;51.704;7.822;2023-02-28T06:09:11;9.20;;;5.13;;
46415;SDS011;32620;51.704;7.822;2023-02-28T06:11:37;5.90;;;4.47;;
46415;SDS011;32620;51.704;7.822;2023-02-28T06:14:03;6.15;;;4.40;;
46415;SDS011;32620;51.704;7.822;2023-02-28T06:16:29;9.82;;;4.88;;
46415;SDS011;32620;51.704;7.822;2023-02-28T06:18:57;11.57;;;4.43;;
46415;SDS011;32620;51.704;7.822;2023-02-28T06:21:24;8.13;;;4.53;;
46415;SDS011;32620;51.704;7.822;2023-02-28T06:23:50;9.35;;;4.35;;
46415;SDS011;32620;51.704;7.822;2023-02-28T06:26:15;6.10;;;4.35;;
46415;SDS011;32620;51.704;7.822;2023-02-28T06:28:41;10.00;;;4.43;;
46415;SDS011;32620;51.704;7.822;2023-02-28T06:31:07;8.48;;;4.40;;
46415;SDS011;32620;51.704;7.822;2023-02-28T06:33:35;7.88;;;5.18;;
46415;SDS011;32620;51.704;7.822;2023-02-28T06:36:01;7.18;;;4.88;;
46415;SDS011;32620;51.704;7.822;2023-02-28T06:38:27;12.15;;;5.22;;
46415;SDS011;32620;51.704;7.822;2023-02-28T06:40:53;8.23;;;5.65;;
46415;SDS011;32620;51.704;7.822;2023-02-28T06:43:20;10.32;;;5.88;;
46415;SDS011;32620;51.704;7.822;2023-02-28T06:45:46;9.60;;;5.38;;
46415;SDS011;32620;51.704;7.822;2023-02-28T06:48:11;8.95;;;5.65;;
46415;SDS011;32620;51.704;7.822;2023-02-28T06:50:37;10.38;;;5.32;;
46415;SDS011;32620;51.704;7.822;2023-02-28T06:53:03;9.38;;;5.10;;
46415;SDS011;32620;51.704;7.822;2023-02-28T06:55:29;11.23;;;5.63;;
46415;SDS011;32620;51.704;7.822;2023-02-28T06:57:54;13.45;;;6.20;;
46415;SDS011;32620;51.704;7.822;2023-02-28T07:00:20;8.15;;;5.15;;
46415;SDS011;32620;51.704;7.822;2023-02-28T07:02:46;8.98;;;5.80;;
46415;SDS011;32620;51.704;7.822;2023-02-28T07:05:12;13.57;;;5.65;;
46415;SDS011;32620;51.704;7.822;2023-02-28T07:07:37;10.23;;;5.80;;
46415;SDS011;32620;51.704;7.822;2023-02-28T07:10:05;7.55;;;5.18;;
46415;SDS011;32620;51.704;7.822;2023-02-28T07:12:31;11.07;;;5.30;;
46415;SDS011;32620;51.704;7.822;2023-02-28T07:14:57;9.18;;;5.50;;
46415;SDS011;32620;51.704;7.822;2023-02-28T07:17:22;12.60;;;5.53;;
46415;SDS011;32620;51.704;7.822;2023-02-28T07:19:48;8.60;;;5.55;;
46415;SDS011;32620;51.704;7.822;2023-02-28T07:22:13;9.10;;;5.45;;
46415;SDS011;32620;51.704;7.822;2023-02-28T07:24:39;10.35;;;5.57;;
46415;SDS011;32620;51.704;7.822;2023-02-28T07:27:04;11.35;;;6.10;;
46415;SDS011;32620;51.704;7.822;2023-02-28T07:29:30;11.23;;;5.80;;
46415;SDS011;32620;51.704;7.822;2023-02-28T07:31:55;13.00;;;6.10;;
46415;SDS011;32620;51.704;7.822;2023-02-28T07:34:21;12.10;;;6.07;;
46415;SDS011;32620;51.704;7.822;2023-02-28T07:36:47;8.18;;;5.68;;
46415;SDS011;32620;51.704;7.822;2023-02-28T07:39:13;8.85;;;5.07;;
46415;SDS011;32620;51.704;7.822;2023-02-28T07:41:38;10.32;;;5.22;;
46415;SDS011;32620;51.704;7.822;2023-02-28T07:44:09;7.80;;;5.03;;
46415;SDS011;32620;51.704;7.822;2023-02-28T07:46:35;8.65;;;5.25;;
46415;SDS011;32620;51.704;7.822;2023-02-28T07:49:01;7.80;;;4.60;;
46415;SDS011;32620;51.704;7.822;2023-02-28T07:51:28;9.77;;;4.80;;
46415;SDS011;32620;51.704;7.822;2023-02-28T07:53:54;6.15;;;4.47;;
46415;SDS011;32620;51.704;7.822;2023-02-28T07:56:19;7.63;;;4.45;;
46415;SDS011;32620;51.704;7.822;2023-02-28T07:58:45;11.15;;;4.82;;
46415;SDS011;32620;51.704;7.822;2023-02-28T08:01:11;9.10;;;4.53;;
46415;SDS011;32620;51.704;7.822;2023-02-28T08:03:37;7.43;;;5.15;;
46415;SDS011;32620;51.704;7.822;2023-02-28T08:06:04;7.47;;;4.07;;
46415;SDS011;32620;51.704;7.822;2023-02-28T08:08:31;6.05;;;4.30;;
46415;SDS011;32620;51.704;7.822;2023-02-28T08:10:58;5.60;;;4.22;;
46415;SDS011;32620;51.704;7.822;2023-02-28T08:13:25;6.55;;;4.45;;
46415;SDS011;32620;51.704;7.822;2023-02-28T08:15:52;7.65;;;4.18;;
46415;SDS011;32620;51.704;7.822;2023-02-28T08:18:19;11.15;;;4.00;;
46415;SDS011;32620;51.704;7.822;2023-02-28T08:20:45;6.03;;;3.90;;
46415;SDS011;32620;51.704;7.822;2023-02-28T08:23:10;8.27;;;4.22;;
46415;SDS011;32620;51.704;7.822;2023-02-28T08:25:36;8.50;;;4.50;;
46415;SDS011;32620;51.704;7.822;2023-02-28T08:28:01;6.07;;;3.33;;
46415;SDS011;32620;51.704;7.822;2023-02-28T08:30:27;6.18;;;4.10;;
46415;SDS011;32620;51.704;7.822;2023-02-28T08:32:54;6.25;;;3.60;;
46415;SDS011;32620;51.704;7.822;2023-02-28T08:35:20;5.40;;;3.53;;
46415;SDS011;32620;51.704;7.822;2023-02-28T08:37:47;5.95;;;3.20;;
46415;SDS011;32620;51.704;7.822;2023-02-28T08:40:13;5.85;;;3.72;;
46415;SDS011;32620;51.704;7.822;2023-02-28T08:42:43;5.32;;;3.75;;
46415;SDS011;32620;51.704;7.822;2023-02-28T08:45:09;6.55;;;3.95;;
46415;SDS011;32620;51.704;7.822;2023-02-28T08:47:35;5.47;;;3.28;;
46415;SDS011;32620;51.704;7.822;2023-02-28T08:50:01;6.88;;;3.00;;
46415;SDS011;32620;51.704;7.822;2023-02-28T08:52:26;6.00;;;3.05;;
46415;SDS011;32620;51.704;7.822;2023-02-28T08:54:52;5.93;;;2.97;;
46415;SDS011;32620;51.704;7.822;2023-02-28T08:57:17;5.07;;;2.70;;
46415;SDS011;32620;51.704;7.822;2023-02-28T08:59:43;5.05;;;2.72;;
46415;SDS011;32620;51.704;7.822;2023-02-28T09:02:09;6.38;;;2.72;;
46415;SDS011;32620;51.704;7.822;2023-02-28T09:04:37;3.72;;;3.00;;
46415;SDS011;32620;51.704;7.822;2023-02-28T09:07:03;5.90;;;2.70;;
46415;SDS011;32620;51.704;7.822;2023-02-28T09:09:28;5.85;;;2.83;;
46415;SDS011;32620;51.704;7.822;2023-02-28T09:11:55;3.05;;;2.20;;
46415;SDS011;32620;51.704;7.822;2023-02-28T09:14:21;3.75;;;2.45;;
46415;SDS011;32620;51.704;7.822;2023-02-28T09:16:46;4.90;;;2.63;;
46415;SDS011;32620;51.704;7.822;2023-02-28T09:19:12;4.53;;;2.92;;
46415;SDS011;32620;51.704;7.822;2023-02-28T09:21:38;3.42;;;2.20;;
46415;SDS011;32620;51.704;7.822;2023-02-28T09:24:03;2.78;;;2.22;;
46415;SDS011;32620;51.704;7.822;2023-02-28T09:26:29;4.75;;;2.50;;
46415;SDS011;32620;51.704;7.822;2023-02-28T09:28:55;5.68;;;2.90;;
46415;SDS011;32620;51.704;7.822;2023-02-28T09:31:22;2.72;;;2.10;;
46415;SDS011;32620;51.704;7.822;2023-02-28T09:33:50;4.57;;;2.28;;
46415;SDS011;32620;51.704;7.822;2023-02-28T09:36:17;3.22;;;1.80;;
46415;SDS011;32620;51.704;7.822;2023-02-28T09:38:43;2.83;;;1.77;;
46415;SDS011;32620;51.704;7.822;2023-02-28T09:41:26;3.00;;;2.08;;
46415;SDS011;32620;51.704;7.822;2023-02-28T09:46:37;4.75;;;1.95;;
46415;SDS011;32620;51.704;7.822;2023-02-28T09:49:11;3.85;;;2.05;;
46415;SDS011;32620;51.704;7.822;2023-02-28T09:54:19;6.03;;;2.40;;
46415;SDS011;32620;51.704;7.822;2023-02-28T09:56:50;4.72;;;2.00;;
46415;SDS011;32620;51.704;7.822;2023-02-28T09:59:30;2.78;;;1.73;;
46415;SDS011;32620;51.704;7.822;2023-02-28T10:02:52;3.15;;;2.05;;
46415;SDS011;32620;51.704;7.822;2023-02-28T10:05:13;3.00;;;2.05;;
46415;SDS011;32620;51.704;7.822;2023-02-28T10:07:47;6.07;;;2.00;;
46415;SDS011;32620;51.704;7.822;2023-02-28T10:10:37;4.00;;;2.05;;
46415;SDS011;32620;51.704;7.822;2023-02-28T10:16:01;2.50;;;1.63;;
46415;SDS011;32620;51.704;7.822;2023-02-28T10:18:40;2.45;;;1.80;;
46415;SDS011;32620;51.704;7.822;2023-02-28T10:21:19;2.78;;;1.85;;
46415;SDS011;32620;51.704;7.822;2023-02-28T10:23:50;2.88;;;2.10;;
46415;SDS011;32620;51.704;7.822;2023-02-28T10:26:24;2.42;;;1.88;;
46415;SDS011;32620;51.704;7.822;2023-02-28T10:28:53;2.63;;;1.50;;
46415;SDS011;32620;51.704;7.822;2023-02-28T10:31:19;2.67;;;2.00;;
46415;SDS011;32620;51.704;7.822;2023-02-28T10:33:46;2.92;;;1.90;;
46415;SDS011;32620;51.704;7.822;2023-02-28T10:36:14;4.65;;;2.20;;
46415;SDS011;32620;51.704;7.822;2023-02-28T10:38:41;3.80;;;2.20;;
46415;SDS011;32620;51.704;7.822;2023-02-28T10:41:08;2.63;;;2.20;;
46415;SDS011;32620;51.704;7.822;2023-02-28T10:43:37;6.32;;;2.90;;
46415;SDS011;32620;51.704;7.822;2023-02-28T10:46:04;2.80;;;2.38;;
46415;SDS011;32620;51.704;7.822;2023-02-28T10:48:41;3.78;;;2.70;;
46415;SDS011;32620;51.704;7.822;2023-02-28T10:51:10;4.30;;;2.60;;
46415;SDS011;32620;51.704;7.822;2023-02-28T10:53:44;4.40;;;2.60;;
46415;SDS011;32620;51.704;7.822;2023-02-28T10:56:20;6.60;;;3.50;;
46415;SDS011;32620;51.704;7.822;2023-02-28T10:58:49;3.83;;;2.60;;
46415;SDS011;32620;51.704;7.822;2023-02-28T11:01:46;3.97;;;2.60;;
46415;SDS011;32620;51.704;7.822;2023-02-28T11:04:34;6.50;;;2.90;;
46415;SDS011;32620;51.704;7.822;2023-02-28T11:07:02;6.57;;;3.90;;
46415;SDS011;32620;51.704;7.822;2023-02-28T11:12:19;4.90;;;3.50;;
46415;SDS011;32620;51.704;7.822;2023-02-28T11:14:52;5.55;;;3.83;;
46415;SDS011;32620;51.704;7.822;2023-02-28T11:17:21;5.80;;;3.70;;
46415;SDS011;32620;51.704;7.822;2023-02-28T11:19:50;5.20;;;3.45;;
46415;SDS011;32620;51.704;7.822;2023-02-28T11:22:19;4.35;;;3.50;;
46415;SDS011;32620;51.704;7.822;2023-02-28T11:24:49;9.13;;;4.03;;
46415;SDS011;32620;51.704;7.822;2023-02-28T11:27:26;6.00;;;4.15;;
46415;SDS011;32620;51.704;7.822;2023-02-28T11:30:22;7.82;;;3.80;;
46415;SDS011;32620;51.704;7.822;2023-02-28T11:35:57;6.10;;;2.97;;
46415;SDS011;32620;51.704;7.822;2023-02-28T11:38:27;4.43;;;3.22;;
46415;SDS011;32620;51.704;7.822;2023-02-28T11:43:38;4.10;;;2.88;;
46415;SDS011;32620;51.704;7.822;2023-02-28T11:46:26;9.30;;;2.92;;
46415;SDS011;32620;51.704;7.822;2023-02-28T11:51:47;5.38;;;2.03;;
46415;SDS011;32620;51.704;7.822;2023-02-28T12:00:23;4.20;;;2.10;;
46415;SDS011;32620;51.704;7.822;2023-02-28T12:11:32;3.53;;;2.53;;
46415;SDS011;32620;51.704;7.822;2023-02-28T12:14:25;3.72;;;2.67;;
46415;SDS011;32620;51.704;7.822;2023-02-28T12:20:22;6.78;;;2.97;;
46415;SDS011;32620;51.704;7.822;2023-02-28T12:23:19;4.45;;;2.80;;
46415;SDS011;32620;51.704;7.822;2023-02-28T12:25:57;3.63;;;3.00;;
46415;SDS011;32620;51.704;7.822;2023-02-28T12:28:38;7.30;;;3.08;;
46415;SDS011;32620;51.704;7.822;2023-02-28T12:31:40;8.68;;;3.47;;
46415;SDS011;32620;51.704;7.822;2023-02-28T12:33:56;7.10;;;3.47;;
46415;SDS011;32620;51.704;7.822;2023-02-28T12:36:27;5.30;;;3.40;;
46415;SDS011;32620;51.704;7.822;2023-02-28T12:38:55;6.05;;;3.22;;
46415;SDS011;32620;51.704;7.822;2023-02-28T12:41:40;4.00;;;3.20;;
46415;SDS011;32620;51.704;7.822;2023-02-28T12:44:19;4.40;;;3.45;;
46415;SDS011;32620;51.704;7.822;2023-02-28T12:46:49;5.57;;;4.00;;
46415;SDS011;32620;51.704;7.822;2023-02-28T12:49:19;7.97;;;3.70;;
46415;SDS011;32620;51.704;7.822;2023-02-28T12:51:50;8.00;;;4.00;;
46415;SDS011;32620;51.704;7.822;2023-02-28T12:54:49;5.30;;;3.97;;
46415;SDS011;32620;51.704;7.822;2023-02-28T12:57:26;5.13;;;3.95;;
46415;SDS011;32620;51.704;7.822;2023-02-28T13:00:03;6.43;;;3.80;;
46415;SDS011;32620;51.704;7.822;2023-02-28T13:02:49;6.55;;;3.92;;
46415;SDS011;32620;51.704;7.822;2023-02-28T13:06:03;7.47;;;4.30;;
46415;SDS011;32620;51.704;7.822;2023-02-28T13:08:41;5.28;;;3.67;;
46415;SDS011;32620;51.704;7.822;2023-02-28T13:11:25;5.15;;;3.90;;
46415;SDS011;32620;51.704;7.822;2023-02-28T13:14:05;7.68;;;3.88;;
46415;SDS011;32620;51.704;7.822;2023-02-28T13:16:48;4.82;;;3.15;;
46415;SDS011;32620;51.704;7.822;2023-02-28T13:19:44;5.28;;;3.60;;
46415;SDS011;32620;51.704;7.822;2023-02-28T13:22:36;6.38;;;3.70;;
46415;SDS011;32620;51.704;7.822;2023-02-28T13:25:50;5.13;;;3.40;;
46415;SDS011;32620;51.704;7.822;2023-02-28T13:28:55;7.18;;;3.88;;
46415;SDS011;32620;51.704;7.822;2023-02-28T13:31:20;8.07;;;4.40;;
46415;SDS011;32620;51.704;7.822;2023-02-28T13:36:26;6.47;;;3.90;;
46415;SDS011;32620;51.704;7.822;2023-02-28T13:38:57;6.72;;;4.25;;
46415;SDS011;32620;51.704;7.822;2023-02-28T13:44:06;8.82;;;4.18;;
46415;SDS011;32620;51.704;7.822;2023-02-28T13:49:26;5.88;;;4.30;;
46415;SDS011;32620;51.704;7.822;2023-02-28T13:55:24;6.75;;;4.30;;
46415;SDS011;32620;51.704;7.822;2023-02-28T14:04:09;6.28;;;4.50;;
46415;SDS011;32620;51.704;7.822;2023-02-28T14:06:52;6.35;;;4.50;;
46415;SDS011;32620;51.704;7.822;2023-02-28T14:09:23;6.57;;;4.40;;
46415;SDS011;32620;51.704;7.822;2023-02-28T14:11:52;6.78;;;4.75;;
46415;SDS011;32620;51.704;7.822;2023-02-28T14:17:16;7.32;;;5.18;;
46415;SDS011;32620;51.704;7.822;2023-02-28T14:19:44;7.78;;;5.40;;
46415;SDS011;32620;51.704;7.822;2023-02-28T14:25:17;6.93;;;4.22;;
46415;SDS011;32620;51.704;7.822;2023-02-28T14:27:49;6.60;;;4.47;;
46415;SDS011;32620;51.704;7.822;2023-02-28T14:33:20;6.05;;;4.25;;
46415;SDS011;32620;51.704;7.822;2023-02-28T14:36:34;7.25;;;4.43;;
46415;SDS011;32620;51.704;7.822;2023-02-28T14:38:53;4.72;;;4.10;;
46415;SDS011;32620;51.704;7.822;2023-02-28T14:44:02;7.30;;;3.97;;
46415;SDS011;32620;51.704;7.822;2023-02-28T14:46:39;6.88;;;4.53;;
46415;SDS011;32620;51.704;7.822;2023-02-28T14:49:06;4.28;;;3.60;;
46415;SDS011;32620;51.704;7.822;2023-02-28T14:51:40;6.72;;;4.50;;
46415;SDS011;32620;51.704;7.822;2023-02-28T14:54:05;9.45;;;4.88;;
46415;SDS011;32620;51.704;7.822;2023-02-28T14:56:34;4.68;;;3.78;;
46415;SDS011;32620;51.704;7.822;2023-02-28T14:59:04;5.32;;;3.92;;
46415;SDS011;32620;51.704;7.822;2023-02-28T15:01:43;6.38;;;3.40;;
46415;SDS011;32620;51.704;7.822;2023-02-28T15:04:12;7.82;;;4.22;;
46415;SDS011;32620;51.704;7.822;2023-02-28T15:06:56;4.80;;;3.63;;
46415;SDS011;32620;51.704;7.822;2023-02-28T15:09:33;5.47;;;3.22;;
46415;SDS011;32620;51.704;7.822;2023-02-28T15:11:59;8.70;;;3.88;;
46415;SDS011;32620;51.704;7.822;2023-02-28T15:14:25;5.32;;;3.58;;
46415;SDS011;32620;51.704;7.822;2023-02-28T15:16:55;5.75;;;3.45;;
46415;SDS011;32620;51.704;7.822;2023-02-28T15:19:26;6.15;;;3.95;;
46415;SDS011;32620;51.704;7.822;2023-02-28T15:21:57;5.53;;;4.22;;
46415;SDS011;32620;51.704;7.822;2023-02-28T15:24:36;8.32;;;4.25;;
46415;SDS011;32620;51.704;7.822;2023-02-28T15:27:05;9.10;;;3.95;;
46415;SDS011;32620;51.704;7.822;2023-02-28T15:29:45;6.90;;;4.20;;
46415;SDS011;32620;51.704;7.822;2023-02-28T15:32:32;7.30;;;4.10;;
46415;SDS011;32620;51.704;7.822;2023-02-28T15:35:32;5.18;;;3.67;;
46415;SDS011;32620;51.704;7.822;2023-02-28T15:38:02;6.30;;;4.47;;
46415;SDS011;32620;51.704;7.822;2023-02-28T15:40:52;7.70;;;4.40;;
46415;SDS011;32620;51.704;7.822;2023-02-28T15:43:36;5.10;;;3.63;;
46415;SDS011;32620;51.704;7.822;2023-02-28T15:46:07;6.53;;;3.78;;
46415;SDS011;32620;51.704;7.822;2023-02-28T15:48:37;5.97;;;3.65;;
46415;SDS011;32620;51.704;7.822;2023-02-28T15:51:22;6.28;;;3.85;;
46415;SDS011;32620;51.704;7.822;2023-02-28T15:53:56;7.78;;;3.92;;
46415;SDS011;32620;51.704;7.822;2023-02-28T15:56:26;6.47;;;4.30;;
46415;SDS011;32620;51.704;7.822;2023-02-28T15:58:55;4.75;;;3.72;;
46415;SDS011;32620;51.704;7.822;2023-02-28T16:01:26;6.68;;;3.70;;
46415;SDS011;32620;51.704;7.822;2023-02-28T16:03:56;5.72;;;3.95;;
46415;SDS011;32620;51.704;7.822;2023-02-28T16:06:26;7.13;;;3.70;;
46415;SDS011;32620;51.704;7.822;2023-02-28T16:08:59;6.22;;;3.30;;
46415;SDS011;32620;51.704;7.822;2023-02-28T16:11:24;6.97;;;3.88;;
46415;SDS011;32620;51.704;7.822;2023-02-28T16:13:51;6.68;;;4.30;;
46415;SDS011;32620;51.704;7.822;2023-02-28T16:16:18;7.13;;;3.78;;
46415;SDS011;32620;51.704;7.822;2023-02-28T16:18:45;7.85;;;3.78;;
46415;SDS011;32620;51.704;7.822;2023-02-28T16:21:11;5.25;;;4.00;;
46415;SDS011;32620;51.704;7.822;2023-02-28T16:23:37;7.72;;;3.85;;
46415;SDS011;32620;51.704;7.822;2023-02-28T16:26:03;5.20;;;3.80;;
46415;SDS011;32620;51.704;7.822;2023-02-28T16:28:30;5.75;;;4.03;;
46415;SDS011;32620;51.704;7.822;2023-02-28T16:30:59;9.85;;;3.97;;
46415;SDS011;32620;51.704;7.822;2023-02-28T16:33:27;8.38;;;3.90;;
46415;SDS011;32620;51.704;7.822;2023-02-28T16:35:53;6.15;;;3.80;;